Back to Top

Language: 

My Weather Underground Personal Weather Station Historical Data with Graphs...

Delerius Weather Station Historical Data
Daily Summary for February 2, 2018 Units:  Metric    English   Both
« Previous Day
Next Day »
Daily Weekly Monthly Yearly Custom
  High: Low: Average:
Temperature: 7.7 °C -0.5 °C 4.2 °C
Dew Point: 2.3 °C -1.8 °C 0.6 °C
Humidity: 93 % 65 % 78 %
Wind Speed: 24.1 km/h 0 km/h 9.5 km/h
Wind Gust: 41.8 km/h - -
Wind:- - NW
Pressure: 1012.1 hPa 1007 hPa -
Precipitation: 0 mm    
Historical Graphs
 
 
Tabular Data for February 2, 2018
Time Temperature Dew Point Pressure Wind Wind Speed Wind Gust Humidity Rainfall Rate (Hourly) solar Conditions
00:00 3.9 °C 0.4 °C 1007.3 hPa WNW 19.3 km/h 29 km/h 78 % 0 mm 0 W/m2
00:05 3.9 °C 0.4 °C 1007.3 hPa WNW 17.7 km/h 32.2 km/h 78 % 0 mm 0 W/m2
00:10 3.8 °C 0.3 °C 1007.3 hPa WNW 17.7 km/h 30.6 km/h 78 % 0 mm 0 W/m2
00:15 3.8 °C 0.5 °C 1007.3 hPa WNW 17.7 km/h 30.6 km/h 79 % 0 mm 0 W/m2
00:20 3.8 °C 0.3 °C 1007.3 hPa WNW 17.7 km/h 32.2 km/h 78 % 0 mm 0 W/m2
00:25 3.8 °C 0.5 °C 1007.3 hPa WNW 17.7 km/h 30.6 km/h 79 % 0 mm 0 W/m2
00:30 3.9 °C 0.4 °C 1007.3 hPa WNW 17.7 km/h 24.1 km/h 78 % 0 mm 0 W/m2
00:35 4 °C 0.5 °C 1007.3 hPa WNW 20.9 km/h 37 km/h 78 % 0 mm 0 W/m2
00:40 4.1 °C 0.6 °C 1007.3 hPa WNW 16.1 km/h 25.7 km/h 78 % 0 mm 0 W/m2
00:45 4.1 °C 0.6 °C 1007.3 hPa WNW 20.9 km/h 35.4 km/h 78 % 0 mm 0 W/m2
00:50 4.2 °C 0.5 °C 1007.3 hPa WNW 17.7 km/h 32.2 km/h 77 % 0 mm 0 W/m2
00:55 4.3 °C 0.6 °C 1007.3 hPa NW 20.9 km/h 41.8 km/h 77 % 0 mm 0 W/m2
01:00 4.3 °C 0.6 °C 1007.3 hPa WNW 24.1 km/h 35.4 km/h 77 % 0 mm 0 W/m2
01:05 4.4 °C 0.7 °C 1007 hPa WNW 20.9 km/h 32.2 km/h 77 % 0 mm 0 W/m2
01:10 4.4 °C 0.6 °C 1007 hPa WNW 22.5 km/h 41.8 km/h 76 % 0 mm 0 W/m2
01:15 4.5 °C 0.6 °C 1007 hPa WNW 19.3 km/h 38.6 km/h 76 % 0 mm 0 W/m2
01:20 4.5 °C 0.6 °C 1007 hPa WNW 17.7 km/h 35.4 km/h 76 % 0 mm 0 W/m2
01:25 4.4 °C 0.6 °C 1007.3 hPa WNW 17.7 km/h 38.6 km/h 76 % 0 mm 0 W/m2
01:30 4.4 °C 0.6 °C 1007.3 hPa WNW 12.9 km/h 29 km/h 76 % 0 mm 0 W/m2
01:35 4.4 °C 0.6 °C 1007.7 hPa NW 14.5 km/h 32.2 km/h 76 % 0 mm 0 W/m2
01:40 4.5 °C 0.6 °C 1007.3 hPa WNW 19.3 km/h 37 km/h 76 % 0 mm 0 W/m2
01:45 4.6 °C 0.7 °C 1007.7 hPa WNW 20.9 km/h 35.4 km/h 76 % 0 mm 0 W/m2
01:50 4.6 °C 0.7 °C 1007.7 hPa WNW 19.3 km/h 32.2 km/h 76 % 0 mm 0 W/m2
01:55 4.6 °C 0.7 °C 1007.7 hPa WNW 22.5 km/h 37 km/h 76 % 0 mm 0 W/m2
02:00 4.7 °C 0.7 °C 1008 hPa NW 24.1 km/h 41.8 km/h 75 % 0 mm 0 W/m2
02:05 4.7 °C 0.7 °C 1008 hPa NW 16.1 km/h 24.1 km/h 75 % 0 mm 0 W/m2
02:10 4.8 °C 0.7 °C 1008 hPa NW 12.9 km/h 20.9 km/h 75 % 0 mm 0 W/m2
02:15 4.8 °C 0.7 °C 1008 hPa NW 17.7 km/h 40.2 km/h 75 % 0 mm 0 W/m2
02:20 4.8 °C 0.7 °C 1008 hPa NW 17.7 km/h 32.2 km/h 75 % 0 mm 0 W/m2
02:25 4.9 °C 0.8 °C 1008 hPa NW 17.7 km/h 29 km/h 75 % 0 mm 0 W/m2
02:30 4.9 °C 0.8 °C 1008.4 hPa NW 16.1 km/h 25.7 km/h 75 % 0 mm 0 W/m2
02:35 4.9 °C 0.8 °C 1008.4 hPa NW 16.1 km/h 30.6 km/h 75 % 0 mm 0 W/m2
02:40 4.9 °C 0.8 °C 1008.4 hPa NW 14.5 km/h 32.2 km/h 75 % 0 mm 0 W/m2
02:45 4.9 °C 0.8 °C 1008.4 hPa NW 14.5 km/h 24.1 km/h 75 % 0 mm 0 W/m2
02:51 4.9 °C 0.8 °C 1008.4 hPa NW 16.1 km/h 30.6 km/h 75 % 0 mm 0 W/m2
02:56 4.9 °C 0.8 °C 1008.4 hPa NW 14.5 km/h 29 km/h 75 % 0 mm 0 W/m2
03:01 4.9 °C 0.8 °C 1008.4 hPa NW 16.1 km/h 30.6 km/h 75 % 0 mm 0 W/m2
03:06 4.9 °C 0.8 °C 1008.7 hPa NW 17.7 km/h 32.2 km/h 75 % 0 mm 0 W/m2
03:11 4.9 °C 0.8 °C 1008.7 hPa NW 14.5 km/h 24.1 km/h 75 % 0 mm 0 W/m2
03:16 4.9 °C 0.8 °C 1008.7 hPa NW 20.9 km/h 37 km/h 75 % 0 mm 0 W/m2
03:21 4.8 °C 0.7 °C 1008.7 hPa NW 20.9 km/h 32.2 km/h 75 % 0 mm 0 W/m2
03:26 4.8 °C 0.7 °C 1008.7 hPa NW 14.5 km/h 29 km/h 75 % 0 mm 0 W/m2
03:31 4.8 °C 0.7 °C 1008.7 hPa WNW 19.3 km/h 33.8 km/h 75 % 0 mm 0 W/m2
03:36 4.8 °C 0.7 °C 1008.7 hPa NW 17.7 km/h 30.6 km/h 75 % 0 mm 0 W/m2
03:41 4.8 °C 0.7 °C 1008.7 hPa NW 14.5 km/h 29 km/h 75 % 0 mm 0 W/m2
03:46 4.8 °C 0.7 °C 1008.7 hPa NW 12.9 km/h 22.5 km/h 75 % 0 mm 0 W/m2
03:51 4.8 °C 0.7 °C 1008.7 hPa NW 11.3 km/h 25.7 km/h 75 % 0 mm 0 W/m2
03:56 4.8 °C 0.9 °C 1008.7 hPa NW 12.9 km/h 25.7 km/h 76 % 0 mm 0 W/m2
04:01 4.8 °C 0.9 °C 1008.7 hPa NW 16.1 km/h 30.6 km/h 76 % 0 mm 0 W/m2
04:06 4.8 °C 0.9 °C 1008.7 hPa WNW 17.7 km/h 33.8 km/h 76 % 0 mm 0 W/m2
04:11 4.8 °C 1.1 °C 1009 hPa WNW 16.1 km/h 30.6 km/h 77 % 0 mm 0 W/m2
04:16 4.8 °C 1.1 °C 1009 hPa WNW 17.7 km/h 29 km/h 77 % 0 mm 0 W/m2
04:21 4.8 °C 1.1 °C 1009 hPa NW 12.9 km/h 19.3 km/h 77 % 0 mm 0 W/m2
04:26 4.7 °C 1.2 °C 1009 hPa NW 16.1 km/h 24.1 km/h 78 % 0 mm 0 W/m2
04:31 4.7 °C 1.2 °C 1009 hPa WNW 14.5 km/h 24.1 km/h 78 % 0 mm 0 W/m2
04:36 4.7 °C 1.2 °C 1009 hPa WNW 14.5 km/h 25.7 km/h 78 % 0 mm 0 W/m2
04:41 4.7 °C 1.2 °C 1009 hPa WNW 16.1 km/h 30.6 km/h 78 % 0 mm 0 W/m2
04:46 4.7 °C 1.2 °C 1009 hPa WNW 14.5 km/h 24.1 km/h 78 % 0 mm 0 W/m2
04:51 4.7 °C 1.2 °C 1009.4 hPa NW 11.3 km/h 17.7 km/h 78 % 0 mm 0 W/m2
04:56 4.7 °C 1.2 °C 1009.4 hPa WNW 12.9 km/h 20.9 km/h 78 % 0 mm 0 W/m2
05:01 4.7 °C 1.2 °C 1009.4 hPa WNW 16.1 km/h 33.8 km/h 78 % 0 mm 0 W/m2
05:06 4.8 °C 1.3 °C 1009.4 hPa NW 11.3 km/h 20.9 km/h 78 % 0 mm 0 W/m2
05:11 4.8 °C 1.3 °C 1009.4 hPa WNW 11.3 km/h 24.1 km/h 78 % 0 mm 0 W/m2
05:16 4.8 °C 1.3 °C 1009.4 hPa WNW 12.9 km/h 20.9 km/h 78 % 0 mm 0 W/m2
05:21 4.7 °C 1.2 °C 1009.4 hPa NW 14.5 km/h 29 km/h 78 % 0 mm 0 W/m2
05:26 4.6 °C 1.1 °C 1009.4 hPa WNW 12.9 km/h 19.3 km/h 78 % 0 mm 0 W/m2
05:31 4.5 °C 1 °C 1009.4 hPa WNW 12.9 km/h 19.3 km/h 78 % 0 mm 0 W/m2
05:36 4.4 °C 0.9 °C 1009.4 hPa WNW 17.7 km/h 30.6 km/h 78 % 0 mm 0 W/m2
05:41 4.4 °C 0.9 °C 1009.4 hPa WNW 16.1 km/h 24.1 km/h 78 % 0 mm 0 W/m2
05:47 4.5 °C 1 °C 1009.4 hPa WNW 17.7 km/h 29 km/h 78 % 0 mm 0 W/m2
05:52 4.5 °C 1 °C 1009.4 hPa NW 12.9 km/h 25.7 km/h 78 % 0 mm 0 W/m2
05:57 4.5 °C 1 °C 1009.7 hPa WNW 19.3 km/h 33.8 km/h 78 % 0 mm 0 W/m2
06:02 4.5 °C 1 °C 1009.7 hPa WNW 16.1 km/h 25.7 km/h 78 % 0 mm 0 W/m2
06:07 4.5 °C 1 °C 1009.7 hPa WNW 12.9 km/h 20.9 km/h 78 % 0 mm 0 W/m2
06:12 4.5 °C 1 °C 1009.7 hPa WNW 14.5 km/h 24.1 km/h 78 % 0 mm 0 W/m2
06:17 4.4 °C 0.9 °C 1009.7 hPa WNW 14.5 km/h 29 km/h 78 % 0 mm 0 W/m2
06:22 4.4 °C 0.9 °C 1009.7 hPa WNW 14.5 km/h 22.5 km/h 78 % 0 mm 0 W/m2
06:27 4.4 °C 0.9 °C 1009.7 hPa WNW 12.9 km/h 24.1 km/h 78 % 0 mm 0 W/m2
06:32 4.4 °C 0.9 °C 1010 hPa WNW 14.5 km/h 29 km/h 78 % 0 mm 0 W/m2
06:37 4.5 °C 1 °C 1009.7 hPa WNW 14.5 km/h 22.5 km/h 78 % 0 mm 0 W/m2
06:42 4.5 °C 1 °C 1010 hPa WNW 12.9 km/h 22.5 km/h 78 % 0 mm 0 W/m2
06:47 4.5 °C 1 °C 1010 hPa WNW 11.3 km/h 20.9 km/h 78 % 0 mm 0 W/m2
06:52 4.6 °C 0.9 °C 1010 hPa WNW 16.1 km/h 24.1 km/h 77 % 0 mm 0 W/m2
06:57 4.7 °C 1 °C 1010 hPa NW 17.7 km/h 30.6 km/h 77 % 0 mm 0 W/m2
07:02 4.7 °C 1 °C 1010.4 hPa WNW 12.9 km/h 20.9 km/h 77 % 0 mm 0 W/m2
07:07 4.7 °C 1 °C 1010.4 hPa NW 19.3 km/h 32.2 km/h 77 % 0 mm 0 W/m2
07:12 4.8 °C 1.1 °C 1010.4 hPa NW 16.1 km/h 38.6 km/h 77 % 0 mm 0 W/m2
07:17 4.8 °C 0.9 °C 1010.4 hPa NW 16.1 km/h 24.1 km/h 76 % 0 mm 0 W/m2
07:22 4.8 °C 1.1 °C 1010.4 hPa NW 14.5 km/h 29 km/h 77 % 0 mm 0 W/m2
07:27 4.7 °C 1 °C 1010.7 hPa WNW 17.7 km/h 24.1 km/h 77 % 0 mm 0 W/m2
07:32 4.7 °C 1 °C 1010.4 hPa NW 11.3 km/h 20.9 km/h 77 % 0 mm 0 W/m2
07:37 4.7 °C 1 °C 1010.7 hPa WNW 14.5 km/h 24.1 km/h 77 % 0 mm 0 W/m2
07:42 4.7 °C 1 °C 1010.7 hPa NW 14.5 km/h 25.7 km/h 77 % 0 mm 0 W/m2
07:47 4.7 °C 1 °C 1010.7 hPa NW 11.3 km/h 22.5 km/h 77 % 0 mm 0 W/m2
07:52 4.7 °C 1 °C 1010.7 hPa WNW 16.1 km/h 25.7 km/h 77 % 0 mm 0 W/m2
07:57 4.7 °C 1 °C 1011.1 hPa NW 14.5 km/h 22.5 km/h 77 % 0 mm 5 W/m2
08:02 4.7 °C 1 °C 1010.7 hPa WNW 12.9 km/h 19.3 km/h 77 % 0 mm 5 W/m2
08:07 4.6 °C 1.1 °C 1011.1 hPa WNW 16.1 km/h 29 km/h 78 % 0 mm 7 W/m2
08:12 4.6 °C 1.1 °C 1011.1 hPa NW 11.3 km/h 25.7 km/h 78 % 0 mm 11 W/m2
08:17 4.6 °C 1.1 °C 1011.1 hPa NW 9.7 km/h 19.3 km/h 78 % 0 mm 16 W/m2
08:22 4.6 °C 1.1 °C 1011.1 hPa WNW 9.7 km/h 19.3 km/h 78 % 0 mm 14 W/m2
08:27 4.6 °C 1.1 °C 1011.4 hPa WNW 11.3 km/h 19.3 km/h 78 % 0 mm 14 W/m2
08:32 4.7 °C 1.2 °C 1011.4 hPa NW 8 km/h 12.9 km/h 78 % 0 mm 19 W/m2
08:38 4.7 °C 1 °C 1011.4 hPa NW 12.9 km/h 22.5 km/h 77 % 0 mm 32 W/m2
08:43 4.7 °C 1.2 °C 1011.1 hPa NW 12.9 km/h 19.3 km/h 78 % 0 mm 35 W/m2
08:48 4.8 °C 1.3 °C 1011.4 hPa NW 9.7 km/h 20.9 km/h 78 % 0 mm 35 W/m2
08:53 4.8 °C 1.1 °C 1011.4 hPa NW 14.5 km/h 24.1 km/h 77 % 0 mm 42 W/m2
08:58 4.8 °C 1.1 °C 1011.4 hPa NW 12.9 km/h 24.1 km/h 77 % 0 mm 32 W/m2
09:03 4.9 °C 1.2 °C 1011.1 hPa NW 17.7 km/h 24.1 km/h 77 % 0 mm 47 W/m2
09:08 4.9 °C 1.2 °C 1011.1 hPa NW 14.5 km/h 30.6 km/h 77 % 0 mm 53 W/m2
09:13 4.9 °C 1.2 °C 1011.1 hPa NW 16.1 km/h 29 km/h 77 % 0 mm 62 W/m2
09:18 5 °C 1.3 °C 1011.1 hPa NW 9.7 km/h 17.7 km/h 77 % 0 mm 58 W/m2
09:23 5 °C 1.3 °C 1011.4 hPa NW 11.3 km/h 19.3 km/h 77 % 0 mm 54 W/m2
09:28 5 °C 1.3 °C 1011.4 hPa WNW 12.9 km/h 24.1 km/h 77 % 0 mm 72 W/m2
09:33 5 °C 1.3 °C 1011.4 hPa NW 11.3 km/h 20.9 km/h 77 % 0 mm 79 W/m2
09:38 5 °C 1.3 °C 1011.4 hPa WNW 12.9 km/h 19.3 km/h 77 % 0 mm 84 W/m2
09:43 5 °C 1.3 °C 1011.4 hPa WNW 17.7 km/h 29 km/h 77 % 0 mm 83 W/m2
09:48 5.1 °C 1.4 °C 1011.7 hPa NW 12.9 km/h 24.1 km/h 77 % 0 mm 137 W/m2
09:53 5.2 °C 1.5 °C 1011.7 hPa WNW 12.9 km/h 19.3 km/h 77 % 0 mm 144 W/m2
09:58 5.3 °C 1.6 °C 1011.7 hPa NW 14.5 km/h 24.1 km/h 77 % 0 mm 186 W/m2
10:03 5.4 °C 1.5 °C 1011.7 hPa NW 14.5 km/h 24.1 km/h 76 % 0 mm 202 W/m2
10:08 5.6 °C 1.7 °C 1011.7 hPa NW 9.7 km/h 19.3 km/h 76 % 0 mm 213 W/m2
10:13 5.8 °C 1.9 °C 1011.7 hPa NW 11.3 km/h 17.7 km/h 76 % 0 mm 125 W/m2
10:18 6 °C 1.9 °C 1011.7 hPa NW 12.9 km/h 29 km/h 75 % 0 mm 294 W/m2
10:23 6.1 °C 1.8 °C 1011.7 hPa NW 19.3 km/h 29 km/h 74 % 0 mm 213 W/m2
10:28 6 °C 1.7 °C 1011.7 hPa NW 19.3 km/h 33.8 km/h 74 % 0 mm 128 W/m2
10:33 5.9 °C 1.6 °C 1011.7 hPa NW 12.9 km/h 22.5 km/h 74 % 0 mm 97 W/m2
10:38 5.8 °C 1.5 °C 1011.7 hPa NW 14.5 km/h 22.5 km/h 74 % 0 mm 95 W/m2
10:43 5.8 °C 1.5 °C 1011.7 hPa NW 14.5 km/h 25.7 km/h 74 % 0 mm 118 W/m2
10:48 5.8 °C 1.5 °C 1012.1 hPa NW 16.1 km/h 32.2 km/h 74 % 0 mm 91 W/m2
10:53 5.8 °C 1.5 °C 1012.1 hPa NW 9.7 km/h 20.9 km/h 74 % 0 mm 125 W/m2
10:58 5.8 °C 1.7 °C 1012.1 hPa NW 14.5 km/h 24.1 km/h 75 % 0 mm 202 W/m2
11:03 5.9 °C 1.6 °C 1012.1 hPa NW 16.1 km/h 29 km/h 74 % 0 mm 163 W/m2
11:08 5.9 °C 1.6 °C 1012.1 hPa NNW 16.1 km/h 25.7 km/h 74 % 0 mm 156 W/m2
11:13 6 °C 1.7 °C 1011.7 hPa NW 12.9 km/h 20.9 km/h 74 % 0 mm 281 W/m2
11:18 6.1 °C 1.8 °C 1011.7 hPa NW 12.9 km/h 19.3 km/h 74 % 0 mm 336 W/m2
11:24 6.2 °C 1.7 °C 1012.1 hPa NW 14.5 km/h 29 km/h 73 % 0 mm 148 W/m2
11:29 6.2 °C 1.7 °C 1012.1 hPa NW 12.9 km/h 22.5 km/h 73 % 0 mm 171 W/m2
11:34 6.3 °C 1.8 °C 1012.1 hPa NW 12.9 km/h 19.3 km/h 73 % 0 mm 178 W/m2
11:39 6.3 °C 1.8 °C 1012.1 hPa NW 12.9 km/h 29 km/h 73 % 0 mm 176 W/m2
11:44 6.4 °C 1.9 °C 1012.1 hPa NW 14.5 km/h 22.5 km/h 73 % 0 mm 410 W/m2
11:49 6.6 °C 2.1 °C 1011.7 hPa NW 12.9 km/h 20.9 km/h 73 % 0 mm 306 W/m2
11:54 6.7 °C 2 °C 1012.1 hPa NW 12.9 km/h 22.5 km/h 72 % 0 mm 127 W/m2
11:59 6.6 °C 1.9 °C 1012.1 hPa NW 11.3 km/h 19.3 km/h 72 % 0 mm 107 W/m2
12:04 6.5 °C 1.8 °C 1012.1 hPa NW 9.7 km/h 19.3 km/h 72 % 0 mm 116 W/m2
12:09 6.4 °C 1.7 °C 1012.1 hPa NW 12.9 km/h 22.5 km/h 72 % 0 mm 77 W/m2
12:14 6.3 °C 1.8 °C 1011.7 hPa NW 11.3 km/h 19.3 km/h 73 % 0 mm 91 W/m2
12:19 6.2 °C 1.9 °C 1011.7 hPa NNW 8 km/h 14.5 km/h 74 % 0 mm 113 W/m2
12:24 6.2 °C 1.9 °C 1011.7 hPa NW 9.7 km/h 17.7 km/h 74 % 0 mm 83 W/m2
12:29 6.2 °C 1.9 °C 1011.7 hPa NW 9.7 km/h 16.1 km/h 74 % 0 mm 79 W/m2
12:34 6.2 °C 1.9 °C 1011.7 hPa NW 14.5 km/h 24.1 km/h 74 % 0 mm 77 W/m2
12:39 6.2 °C 1.9 °C 1011.7 hPa NW 11.3 km/h 19.3 km/h 74 % 0 mm 97 W/m2
12:44 6.2 °C 2.1 °C 1011.7 hPa NW 9.7 km/h 19.3 km/h 75 % 0 mm 86 W/m2
12:49 6.2 °C 2.1 °C 1011.7 hPa NW 4.8 km/h 12.9 km/h 75 % 0 mm 114 W/m2
12:54 6.2 °C 2.1 °C 1011.7 hPa NW 9.7 km/h 17.7 km/h 75 % 0 mm 86 W/m2
12:59 6.3 °C 2 °C 1011.7 hPa NNW 6.4 km/h 16.1 km/h 74 % 0 mm 146 W/m2
13:04 6.4 °C 2.1 °C 1011.7 hPa NNW 12.9 km/h 20.9 km/h 74 % 0 mm 165 W/m2
13:09 6.6 °C 2.3 °C 1011.7 hPa NNW 9.7 km/h 16.1 km/h 74 % 0 mm 403 W/m2
13:14 6.7 °C 2.2 °C 1011.7 hPa NNW 4.8 km/h 11.3 km/h 73 % 0 mm 195 W/m2
13:19 6.8 °C 2.1 °C 1011.7 hPa NNW 9.7 km/h 16.1 km/h 72 % 0 mm 213 W/m2
13:24 6.9 °C 2.2 °C 1011.7 hPa NNW 8 km/h 16.1 km/h 72 % 0 mm 178 W/m2
13:29 6.9 °C 2 °C 1011.4 hPa NNW 9.7 km/h 16.1 km/h 71 % 0 mm 102 W/m2
13:34 6.8 °C 1.7 °C 1011.7 hPa NNW 8 km/h 16.1 km/h 70 % 0 mm 158 W/m2
13:39 6.9 °C 2 °C 1011.7 hPa NW 11.3 km/h 20.9 km/h 71 % 0 mm 339 W/m2
13:44 7.1 °C 2 °C 1011.7 hPa NNW 12.9 km/h 19.3 km/h 70 % 0 mm 490 W/m2
13:49 7.4 °C 2.1 °C 1011.4 hPa NNW 11.3 km/h 17.7 km/h 69 % 0 mm 420 W/m2
13:54 7.7 °C 1.9 °C 1011.4 hPa North 11.3 km/h 19.3 km/h 67 % 0 mm 320 W/m2
13:59 7.7 °C 1.7 °C 1011.4 hPa NNW 8 km/h 16.1 km/h 66 % 0 mm 79 W/m2
14:04 7.7 °C 1.7 °C 1011.4 hPa NNW 8 km/h 16.1 km/h 66 % 0 mm 309 W/m2
14:09 7.6 °C 1.4 °C 1011.7 hPa NNW 9.7 km/h 17.7 km/h 65 % 0 mm 167 W/m2
14:14 7.5 °C 1.6 °C 1011.4 hPa NNW 9.7 km/h 16.1 km/h 66 % 0 mm 156 W/m2
14:19 7.5 °C 1.8 °C 1011.4 hPa NW 8 km/h 14.5 km/h 67 % 0 mm 262 W/m2
14:20 7.6 °C 1.8 °C 1011.4 hPa NW 6.4 km/h 14.5 km/h 67 % 0 mm 262 W/m2
14:25 7.5 °C 1.6 °C 1011.4 hPa NNW 12.9 km/h 20.9 km/h 66 % 0 mm 279 W/m2
14:30 7.4 °C 1.4 °C 1011.4 hPa NNW 11.3 km/h 17.7 km/h 66 % 0 mm 285 W/m2
14:35 7.4 °C 1.4 °C 1011.7 hPa NW 11.3 km/h 19.3 km/h 66 % 0 mm 130 W/m2
14:40 7.4 °C 1.4 °C 1011.4 hPa NNW 9.7 km/h 14.5 km/h 66 % 0 mm 218 W/m2
14:45 7.3 °C 1.4 °C 1011.4 hPa NW 9.7 km/h 16.1 km/h 66 % 0 mm 95 W/m2
14:50 7.2 °C 1.3 °C 1011.7 hPa NNW 9.7 km/h 17.7 km/h 66 % 0 mm 120 W/m2
14:55 7.2 °C 1.5 °C 1011.4 hPa NW 8 km/h 16.1 km/h 67 % 0 mm 74 W/m2
15:00 7.1 °C 1.4 °C 1011.7 hPa NW 9.7 km/h 17.7 km/h 67 % 0 mm 54 W/m2
15:05 6.9 °C 1.2 °C 1011.4 hPa NW 9.7 km/h 17.7 km/h 67 % 0 mm 79 W/m2
15:10 6.8 °C 1.1 °C 1011.7 hPa NW 4.8 km/h 11.3 km/h 67 % 0 mm 42 W/m2
15:15 6.7 °C 1.2 °C 1011.7 hPa NW 6.4 km/h 12.9 km/h 68 % 0 mm 51 W/m2
15:20 6.7 °C 1.4 °C 1011.7 hPa NW 4.8 km/h 9.7 km/h 69 % 0 mm 72 W/m2
15:26 6.7 °C 1.4 °C 1011.4 hPa NNW 4.8 km/h 12.9 km/h 69 % 0 mm 123 W/m2
15:31 6.7 °C 1.4 °C 1011.7 hPa NW 6.4 km/h 12.9 km/h 69 % 0 mm 167 W/m2
15:36 6.7 °C 1.4 °C 1011.4 hPa NW 9.7 km/h 16.1 km/h 69 % 0 mm 54 W/m2
15:41 6.7 °C 1.2 °C 1011.7 hPa NW 4.8 km/h 14.5 km/h 68 % 0 mm 76 W/m2
15:46 6.7 °C 1.4 °C 1011.4 hPa NW 8 km/h 12.9 km/h 69 % 0 mm 44 W/m2
15:51 6.8 °C 1.5 °C 1011.4 hPa NW 4.8 km/h 12.9 km/h 69 % 0 mm 53 W/m2
15:56 6.8 °C 1.5 °C 1011.4 hPa NW 6.4 km/h 11.3 km/h 69 % 0 mm 39 W/m2
16:01 6.7 °C 1.4 °C 1011.4 hPa NW 4.8 km/h 8 km/h 69 % 0 mm 40 W/m2
16:06 6.6 °C 1.5 °C 1011.4 hPa NNW 3.2 km/h 8 km/h 70 % 0 mm 26 W/m2
16:11 6.4 °C 1.3 °C 1011.4 hPa NW 4.8 km/h 9.7 km/h 70 % 0 mm 25 W/m2
16:16 6.3 °C 1.4 °C 1011.4 hPa NW 1.6 km/h 8 km/h 71 % 0 mm 19 W/m2
16:21 6.2 °C 1.5 °C 1011.4 hPa NW 1.6 km/h 4.8 km/h 72 % 0 mm 19 W/m2
16:26 6.1 °C 1.4 °C 1011.4 hPa NW 1.6 km/h 3.2 km/h 72 % 0 mm 21 W/m2
16:31 6.1 °C 1.4 °C 1011.4 hPa NW 1.6 km/h 6.4 km/h 72 % 0 mm 14 W/m2
16:36 5.9 °C 1.4 °C 1011.4 hPa Calm   1.6 km/h 73 % 0 mm 11 W/m2
16:41 5.8 °C 1.3 °C 1011.4 hPa NW 1.6 km/h 3.2 km/h 73 % 0 mm 9 W/m2
16:46 5.6 °C 1.1 °C 1011.4 hPa NW 4.8 km/h 11.3 km/h 73 % 0 mm 7 W/m2
16:51 5.4 °C 0.9 °C 1011.4 hPa NW 3.2 km/h 8 km/h 73 % 0 mm 5 W/m2
16:56 5.2 °C 0.9 °C 1011.4 hPa NW 1.6 km/h 4.8 km/h 74 % 0 mm 0 W/m2
17:01 5.1 °C 0.8 °C 1011.1 hPa NW 3.2 km/h 6.4 km/h 74 % 0 mm 0 W/m2
17:06 4.8 °C 0.7 °C 1011.4 hPa NW 3.2 km/h 8 km/h 75 % 0 mm 0 W/m2
17:11 4.7 °C 0.8 °C 1011.4 hPa NW 3.2 km/h 9.7 km/h 76 % 0 mm 0 W/m2
17:16 4.6 °C 0.7 °C 1011.4 hPa NW 1.6 km/h 3.2 km/h 76 % 0 mm 0 W/m2
17:21 4.5 °C 0.6 °C 1011.4 hPa WNW 1.6 km/h 8 km/h 76 % 0 mm 0 W/m2
17:26 4.3 °C 0.6 °C 1011.4 hPa NW 1.6 km/h 6.4 km/h 77 % 0 mm 0 W/m2
17:31 4.2 °C 0.5 °C 1011.4 hPa NW 1.6 km/h 3.2 km/h 77 % 0 mm 0 W/m2
17:36 4 °C 0.5 °C 1011.4 hPa Calm   1.6 km/h 78 % 0 mm 0 W/m2
17:41 3.9 °C 0.4 °C 1011.4 hPa Calm   3.2 km/h 78 % 0 mm 0 W/m2
17:46 3.7 °C 0.2 °C 1011.4 hPa Calm     78 % 0 mm 0 W/m2
17:51 3.6 °C 0.1 °C 1011.4 hPa Calm   1.6 km/h 78 % 0 mm 0 W/m2
17:57 3.4 °C 0.1 °C 1011.7 hPa Calm     79 % 0 mm 0 W/m2
18:01 3.2 °C -0.1 °C 1011.4 hPa Calm     79 % 0 mm 0 W/m2
18:07 3 °C -0.1 °C 1011.4 hPa Calm   1.6 km/h 80 % 0 mm 0 W/m2
18:12 2.8 °C -0.1 °C 1011.4 hPa WNW 3.2 km/h 8 km/h 81 % 0 mm 0 W/m2
18:17 2.7 °C -0.1 °C 1011.7 hPa NW 3.2 km/h 6.4 km/h 82 % 0 mm 0 W/m2
18:22 2.7 °C -0.1 °C 1011.7 hPa Calm   1.6 km/h 82 % 0 mm 0 W/m2
18:27 2.6 °C 0 °C 1011.7 hPa Calm   1.6 km/h 83 % 0 mm 0 W/m2
18:32 2.6 °C 0 °C 1011.7 hPa Calm     83 % 0 mm 0 W/m2
18:37 2.4 °C -0.2 °C 1011.4 hPa Calm     83 % 0 mm 0 W/m2
18:42 2.3 °C -0.3 °C 1011.4 hPa Calm     83 % 0 mm 0 W/m2
18:47 2.1 °C -0.5 °C 1011.4 hPa Calm   1.6 km/h 83 % 0 mm 0 W/m2
18:52 2 °C -0.6 °C 1011.4 hPa Calm     83 % 0 mm 0 W/m2
18:57 1.8 °C -0.6 °C 1011.4 hPa Calm   1.6 km/h 84 % 0 mm 0 W/m2
19:02 1.7 °C -0.7 °C 1011.4 hPa Calm     84 % 0 mm 0 W/m2
19:07 1.6 °C -0.7 °C 1011.4 hPa Calm   1.6 km/h 85 % 0 mm 0 W/m2
19:12 1.5 °C -0.7 °C 1011.4 hPa Calm     85 % 0 mm 0 W/m2
19:17 1.4 °C -0.7 °C 1011.4 hPa Calm     86 % 0 mm 0 W/m2
19:22 1.3 °C -0.8 °C 1011.4 hPa Calm     86 % 0 mm 0 W/m2
19:27 1.1 °C -1 °C 1011.1 hPa Calm     86 % 0 mm 0 W/m2
19:32 0.9 °C -1.2 °C 1011.1 hPa Calm     86 % 0 mm 0 W/m2
19:37 0.8 °C -1.3 °C 1011.1 hPa Calm     86 % 0 mm 0 W/m2
19:42 0.7 °C -1.2 °C 1011.1 hPa Calm     87 % 0 mm 0 W/m2
19:47 0.7 °C -1.1 °C 1011.1 hPa Calm     88 % 0 mm 0 W/m2
19:52 0.6 °C -1.2 °C 1011.1 hPa Calm     88 % 0 mm 0 W/m2
19:57 0.5 °C -1.3 °C 1011.1 hPa Calm     88 % 0 mm 0 W/m2
20:02 0.4 °C -1.3 °C 1011.1 hPa Calm     88 % 0 mm 0 W/m2
20:07 0.3 °C -1.4 °C 1011.1 hPa Calm     88 % 0 mm 0 W/m2
20:12 0.2 °C -1.6 °C 1011.1 hPa Calm     88 % 0 mm 0 W/m2
20:17 0.1 °C -1.7 °C 1011.1 hPa Calm     88 % 0 mm 0 W/m2
20:22 0.1 °C -1.5 °C 1011.1 hPa Calm     89 % 0 mm 0 W/m2
20:27 0 °C -1.6 °C 1011.1 hPa Calm     89 % 0 mm 0 W/m2
20:32 -0.1 °C -1.7 °C 1011.1 hPa Calm   1.6 km/h 89 % 0 mm 0 W/m2
20:37 -0.1 °C -1.6 °C 1011.1 hPa Calm     90 % 0 mm 0 W/m2
20:42 -0.1 °C -1.7 °C 1011.1 hPa Calm     89 % 0 mm 0 W/m2
20:47 -0.2 °C -1.8 °C 1011.1 hPa Calm     89 % 0 mm 0 W/m2
20:52 -0.3 °C -1.7 °C 1011.1 hPa Calm     90 % 0 mm 0 W/m2
20:57 -0.3 °C -1.7 °C 1010.7 hPa Calm   1.6 km/h 90 % 0 mm 0 W/m2
21:02 -0.3 °C -1.7 °C 1010.7 hPa Calm     90 % 0 mm 0 W/m2
21:08 -0.3 °C -1.6 °C 1010.7 hPa West 1.6 km/h 4.8 km/h 91 % 0 mm 0 W/m2
21:13 -0.2 °C -1.5 °C 1010.7 hPa WNW 3.2 km/h 8 km/h 91 % 0 mm 0 W/m2
21:18 -0.1 °C -1.4 °C 1010.7 hPa Calm   4.8 km/h 91 % 0 mm 0 W/m2
21:23 0.1 °C -1.1 °C 1010.7 hPa Calm     92 % 0 mm 0 W/m2
21:28 0.1 °C -1.2 °C 1010.4 hPa Calm     91 % 0 mm 0 W/m2
21:33 -0.1 °C -1.4 °C 1010.4 hPa Calm     91 % 0 mm 0 W/m2
21:38 -0.1 °C -1.4 °C 1010.4 hPa Calm     91 % 0 mm 0 W/m2
21:43 -0.2 °C -1.5 °C 1010.4 hPa Calm     91 % 0 mm 0 W/m2
21:48 -0.3 °C -1.6 °C 1010.4 hPa Calm     91 % 0 mm 0 W/m2
21:53 -0.4 °C -1.8 °C 1010.4 hPa Calm     90 % 0 mm 0 W/m2
21:58 -0.5 °C -1.8 °C 1010.4 hPa WNW 1.6 km/h 6.4 km/h 91 % 0 mm 0 W/m2
22:03 -0.4 °C -1.7 °C 1010.4 hPa WNW 3.2 km/h 6.4 km/h 91 % 0 mm 0 W/m2
22:08 -0.3 °C -1.4 °C 1010.4 hPa Calm   4.8 km/h 92 % 0 mm 0 W/m2
22:13 -0.3 °C -1.4 °C 1010.4 hPa Calm     92 % 0 mm 0 W/m2
22:18 -0.3 °C -1.4 °C 1010.4 hPa Calm   1.6 km/h 92 % 0 mm 0 W/m2
22:23 -0.2 °C -1.3 °C 1010.4 hPa Calm   1.6 km/h 92 % 0 mm 0 W/m2
22:28 -0.2 °C -1.3 °C 1010 hPa Calm   1.6 km/h 92 % 0 mm 0 W/m2
22:33 -0.1 °C -1.2 °C 1010 hPa Calm   1.6 km/h 92 % 0 mm 0 W/m2
22:38 -0.2 °C -1.3 °C 1010 hPa Calm   1.6 km/h 92 % 0 mm 0 W/m2
22:43 -0.2 °C -1.3 °C 1010 hPa WNW 1.6 km/h 6.4 km/h 92 % 0 mm 0 W/m2
22:48 -0.1 °C -1.1 °C 1010 hPa WNW 3.2 km/h 8 km/h 93 % 0 mm 0 W/m2
22:53 -0.1 °C -1.1 °C 1010 hPa WNW 6.4 km/h 8 km/h 93 % 0 mm 0 W/m2
22:58 0.1 °C -0.9 °C 1010 hPa WNW 6.4 km/h 9.7 km/h 93 % 0 mm 0 W/m2
23:03 0.2 °C -0.8 °C 1010 hPa WNW 4.8 km/h 9.7 km/h 93 % 0 mm 0 W/m2
23:08 0.3 °C -0.7 °C 1010 hPa WNW 6.4 km/h 9.7 km/h 93 % 0 mm 0 W/m2
23:13 0.3 °C -0.7 °C 1010 hPa WNW 1.6 km/h 6.4 km/h 93 % 0 mm 0 W/m2
23:18 0.4 °C -0.6 °C 1010 hPa Calm   4.8 km/h 93 % 0 mm 0 W/m2
23:24 0.4 °C -0.6 °C 1009.7 hPa NW 6.4 km/h 8 km/h 93 % 0 mm 0 W/m2
23:29 0.5 °C -0.5 °C 1009.7 hPa WNW 1.6 km/h 3.2 km/h 93 % 0 mm 0 W/m2
23:34 0.5 °C -0.5 °C 1009.7 hPa Calm     93 % 0 mm 0 W/m2
23:39 0.4 °C -0.7 °C 1009.7 hPa Calm     92 % 0 mm 0 W/m2
23:44 0.3 °C -0.8 °C 1009.4 hPa Calm     92 % 0 mm 0 W/m2
23:49 0.2 °C -0.9 °C 1009.4 hPa Calm   1.6 km/h 92 % 0 mm 0 W/m2
23:54 0.2 °C -0.9 °C 1009.4 hPa Calm   1.6 km/h 92 % 0 mm 0 W/m2
23:59 0.1 °C -1.1 °C 1009.4 hPa Calm     92 % 0 mm 0 W/m2
Delerius-Weather
Compliments of Weather Underground - 2.25 mb

Data updates at regular intervals.